Terminal Aerodrome Forecast
Issued by NWS Dodge City, KS

Home | Current Version | Previous Version | Text Only | Print | Product List | Glossary On
Versions: 1 2 3 4 5 6 7 8 9 10 11 12 13 14 15 16 17 18 19 20 21 22 23 24 25 26 27 28 29 30 31 32
187
FTUS43 KDDC 260355 AAB
TAFDDC
TAF AMD
KDDC 260355Z 2604/2624 01015G25KT P6SM VCSH OVC040
     FM261100 35017G26KT P6SM OVC035
     FM261500 34020G30KT P6SM SCT080=

USA.gov is the U.S. government's official web portal to all federal, state and local government web resources and services.